Time;durP1;ratioP1;P1;durP2;ratioP2;P2;SDS_P1;SDS_P2;PMS_P1;PMS_P2;Temp;Humidity;BMP_temperature;BMP_pressure;BME280_temperature;BME280_humidity;BME280_pressure;Samples;Min_cycle;Max_cycle;Signal;HPM_P1;HPM_P2
2023/04/24 00:01:42;;;;;;;0.00;0.00;;;12.10;99.90;;;;;;5091283;28;20680;-61
2023/04/24 00:04:10;;;;;;;0.00;0.00;;;12.10;99.90;;;;;;5090688;28;20188;-61
2023/04/24 00:06:42;;;;;;;0.00;0.00;;;12.10;99.90;;;;;;5091117;28;20195;-61
2023/04/24 00:09:09;;;;;;;0.00;0.00;;;12.10;99.90;;;;;;5091130;28;20215;-61
2023/04/24 00:11:36;;;;;;;0.00;0.00;;;12.10;99.90;;;;;;5091108;28;20184;-61
2023/04/24 00:14:01;;;;;;;0.00;0.00;;;12.20;99.90;;;;;;5091118;28;20221;-61
2023/04/24 00:16:27;;;;;;;0.00;0.00;;;12.20;99.90;;;;;;5090873;28;20200;-61
2023/04/24 00:18:53;;;;;;;0.00;0.00;;;12.10;99.90;;;;;;5090989;28;20229;-61
2023/04/24 00:21:18;;;;;;;0.00;0.00;;;12.10;99.90;;;;;;5090944;28;20176;-61
2023/04/24 00:23:44;;;;;;;0.00;0.00;;;12.10;99.90;;;;;;5090856;28;20180;-61
2023/04/24 00:26:10;;;;;;;0.00;0.00;;;12.10;99.90;;;;;;5090992;28;20540;-61
2023/04/24 00:28:35;;;;;;;0.00;0.00;;;12.10;99.90;;;;;;5091093;28;20310;-61
2023/04/24 00:31:01;;;;;;;0.00;0.00;;;12.10;99.90;;;;;;5091174;28;20210;-61
2023/04/24 00:33:27;;;;;;;0.00;0.00;;;12.10;99.90;;;;;;5090844;28;20229;-61
2023/04/24 00:35:52;;;;;;;0.00;0.00;;;12.00;99.90;;;;;;5090829;28;20673;-61
2023/04/24 00:38:18;;;;;;;0.00;0.00;;;12.00;99.90;;;;;;5090763;28;20267;-61
2023/04/24 00:40:44;;;;;;;0.00;0.00;;;12.00;99.90;;;;;;5090257;28;20176;-61
2023/04/24 00:43:10;;;;;;;0.00;0.00;;;12.00;99.90;;;;;;5092879;28;20247;-61
2023/04/24 00:45:35;;;;;;;0.00;0.00;;;12.00;99.90;;;;;;5094089;28;20168;-62
2023/04/24 00:48:02;;;;;;;0.00;0.00;;;12.00;99.90;;;;;;5094204;28;20207;-62
2023/04/24 00:50:28;;;;;;;0.00;0.00;;;12.10;99.90;;;;;;5093926;28;20259;-62
2023/04/24 00:52:54;;;;;;;0.00;0.00;;;12.10;99.90;;;;;;5094624;28;20179;-61
2023/04/24 00:55:20;;;;;;;0.00;0.00;;;12.00;99.90;;;;;;5094443;28;20916;-61
2023/04/24 00:57:46;;;;;;;0.00;0.00;;;12.10;99.90;;;;;;5094061;28;20640;-61
2023/04/24 01:00:13;;;;;;;0.00;0.00;;;12.10;99.90;;;;;;5073937;28;20181;-61
2023/04/24 01:02:43;;;;;;;0.00;0.00;;;12.10;99.90;;;;;;5081931;28;20176;-61
2023/04/24 01:05:09;;;;;;;0.00;0.00;;;12.10;99.90;;;;;;5094358;28;20233;-61
2023/04/24 01:07:36;;;;;;;0.00;0.00;;;12.10;99.90;;;;;;5094295;28;20267;-60
2023/04/24 01:10:02;;;;;;;0.00;0.00;;;12.10;99.90;;;;;;5094301;28;20762;-61
2023/04/24 01:12:27;;;;;;;0.00;0.00;;;12.10;99.90;;;;;;5075948;28;20253;-61
2023/04/24 01:14:54;;;;;;;0.00;0.00;;;12.10;99.90;;;;;;5094311;28;20191;-61
2023/04/24 01:17:20;;;;;;;0.00;0.00;;;12.10;99.90;;;;;;5093960;28;20765;-61
2023/04/24 01:19:46;;;;;;;0.00;0.00;;;12.10;99.90;;;;;;5093987;28;20237;-61
2023/04/24 01:22:13;;;;;;;0.00;0.00;;;12.20;99.90;;;;;;5093959;28;20184;-61
2023/04/24 01:24:39;;;;;;;0.00;0.00;;;12.10;99.90;;;;;;5094005;28;20176;-61
2023/04/24 01:27:05;;;;;;;0.00;0.00;;;12.10;99.90;;;;;;5078477;28;20184;-61
2023/04/24 01:29:31;;;;;;;0.00;0.00;;;12.10;99.90;;;;;;5073628;28;20225;-60
2023/04/24 01:31:58;;;;;;;0.00;0.00;;;12.10;99.90;;;;;;5073620;28;20169;-61
2023/04/24 01:34:24;;;;;;;0.00;0.00;;;12.10;99.90;;;;;;5072902;28;20285;-60
2023/04/24 01:36:50;;;;;;;0.00;0.00;;;12.00;99.90;;;;;;5073217;28;20254;-60
2023/04/24 01:39:16;;;;;;;0.00;0.00;;;12.00;99.90;;;;;;5073306;28;20169;-60
2023/04/24 01:41:42;;;;;;;0.00;0.00;;;12.00;99.90;;;;;;5073301;28;20177;-60
2023/04/24 01:44:08;;;;;;;0.00;0.00;;;12.10;99.90;;;;;;5082189;28;20662;-60
2023/04/24 01:46:35;;;;;;;0.43;0.43;;;12.00;99.90;;;;;;5093561;28;20182;-61
2023/04/24 01:49:01;;;;;;;0.00;0.00;;;12.00;99.90;;;;;;5093408;28;20652;-60
2023/04/24 01:51:26;;;;;;;0.00;0.00;;;12.00;99.90;;;;;;5093184;28;20230;-61
2023/04/24 01:53:53;;;;;;;0.00;0.00;;;12.00;99.90;;;;;;5092217;28;20176;-61
2023/04/24 01:56:22;;;;;;;0.00;0.00;;;12.00;99.90;;;;;;5093206;28;20580;-62
2023/04/24 01:58:53;;;;;;;0.00;0.00;;;12.00;99.90;;;;;;5086618;28;20546;-62
2023/04/24 02:01:23;;;;;;;0.00;0.00;;;12.00;99.90;;;;;;5073050;28;20734;-62
2023/04/24 02:03:49;;;;;;;0.00;0.00;;;11.90;99.90;;;;;;5090143;28;20212;-61
2023/04/24 02:06:14;;;;;;;0.00;0.00;;;11.90;99.90;;;;;;5093163;28;20550;-61
2023/04/24 02:08:40;;;;;;;0.00;0.00;;;11.90;99.90;;;;;;5092580;28;20199;-61
2023/04/24 02:11:06;;;;;;;0.00;0.00;;;11.90;99.90;;;;;;5092146;28;20195;-62
2023/04/24 02:13:31;;;;;;;0.00;0.00;;;11.90;99.90;;;;;;5092776;28;20596;-61
2023/04/24 02:15:58;;;;;;;0.00;0.00;;;11.90;99.90;;;;;;5092728;28;20215;-61
2023/04/24 02:18:24;;;;;;;0.00;0.00;;;11.90;99.90;;;;;;5092531;28;20225;-62
2023/04/24 02:20:49;;;;;;;0.00;0.00;;;11.90;99.90;;;;;;5092827;28;20276;-62
2023/04/24 02:23:15;;;;;;;0.00;0.00;;;11.90;99.90;;;;;;5092564;28;20180;-62
2023/04/24 02:25:40;;;;;;;0.00;0.00;;;11.90;99.90;;;;;;5092701;28;20184;-61
2023/04/24 02:28:06;;;;;;;0.00;0.00;;;11.90;99.90;;;;;;5092320;28;20234;-61
2023/04/24 02:30:32;;;;;;;0.00;0.00;;;11.90;99.90;;;;;;5092686;28;20167;-61
2023/04/24 02:32:57;;;;;;;0.00;0.00;;;11.90;99.90;;;;;;5092794;28;20172;-61
2023/04/24 02:35:23;;;;;;;0.00;0.00;;;11.80;99.90;;;;;;5092630;28;20176;-61
2023/04/24 02:37:48;;;;;;;0.00;0.00;;;11.70;99.90;;;;;;5092816;28;20210;-63
2023/04/24 02:40:14;;;;;;;0.00;0.00;;;11.70;99.90;;;;;;5092688;28;20200;-61
2023/04/24 02:42:39;;;;;;;0.00;0.00;;;11.60;99.90;;;;;;5092729;28;20753;-61
2023/04/24 02:45:05;;;;;;;0.88;0.52;;;11.60;99.90;;;;;;5092384;28;20195;-61
2023/04/24 02:47:31;;;;;;;0.00;0.00;;;11.50;99.90;;;;;;5092603;28;20241;-61
2023/04/24 02:49:56;;;;;;;0.00;0.00;;;11.40;99.90;;;;;;5092460;28;20619;-61
2023/04/24 02:52:22;;;;;;;0.00;0.00;;;11.30;99.90;;;;;;5092526;28;20630;-61
2023/04/24 02:54:47;;;;;;;0.00;0.00;;;11.20;99.90;;;;;;5092371;28;20190;-61
2023/04/24 02:57:13;;;;;;;0.00;0.00;;;11.20;99.90;;;;;;5092176;28;20219;-61
2023/04/24 02:59:39;;;;;;;0.00;0.00;;;11.20;99.90;;;;;;5087547;28;20176;-61
2023/04/24 03:02:05;;;;;;;0.00;0.00;;;11.20;99.90;;;;;;5087374;28;20537;-61
2023/04/24 03:04:31;;;;;;;0.00;0.00;;;11.20;99.90;;;;;;5091962;28;20183;-61
2023/04/24 03:06:57;;;;;;;0.00;0.00;;;11.20;99.90;;;;;;5092034;28;20191;-62
2023/04/24 03:09:23;;;;;;;0.00;0.00;;;11.20;99.90;;;;;;5091964;28;20180;-62
2023/04/24 03:11:49;;;;;;;0.00;0.00;;;11.20;99.90;;;;;;5092103;28;20274;-61
2023/04/24 03:14:15;;;;;;;0.00;0.00;;;11.30;99.90;;;;;;5091842;28;20225;-62
2023/04/24 03:16:40;;;;;;;0.00;0.00;;;11.30;99.90;;;;;;5091786;28;20215;-62
2023/04/24 03:19:06;;;;;;;0.00;0.00;;;11.30;99.90;;;;;;5073380;28;20180;-62
2023/04/24 03:21:31;;;;;;;0.00;0.00;;;11.40;99.90;;;;;;5091740;28;20233;-62
2023/04/24 03:23:57;;;;;;;0.00;0.00;;;11.50;99.90;;;;;;5091329;28;20203;-62
2023/04/24 03:26:22;;;;;;;0.00;0.00;;;11.50;99.90;;;;;;5091351;28;20544;-61
2023/04/24 03:28:48;;;;;;;0.00;0.00;;;11.50;99.90;;;;;;5073519;28;20228;-61
2023/04/24 03:31:15;;;;;;;0.10;0.10;;;11.50;99.90;;;;;;5091137;28;20234;-61
2023/04/24 03:33:40;;;;;;;0.00;0.00;;;11.40;99.90;;;;;;5091587;28;20263;-62
2023/04/24 03:36:06;;;;;;;0.00;0.00;;;11.40;99.90;;;;;;5090772;28;20172;-61
2023/04/24 03:38:32;;;;;;;0.00;0.00;;;11.30;99.90;;;;;;5087798;28;20180;-60
2023/04/24 03:40:57;;;;;;;0.00;0.00;;;11.30;99.90;;;;;;5079293;28;20513;-62
2023/04/24 03:43:23;;;;;;;0.00;0.00;;;11.30;99.90;;;;;;5077263;28;20571;-63
2023/04/24 03:45:49;;;;;;;0.00;0.00;;;11.10;99.90;;;;;;5091250;28;20180;-64
2023/04/24 03:48:14;;;;;;;0.00;0.00;;;11.10;99.90;;;;;;5090849;28;20207;-65
2023/04/24 03:50:40;;;;;;;0.00;0.00;;;11.00;99.90;;;;;;5091020;28;20180;-64
2023/04/24 03:53:05;;;;;;;0.00;0.00;;;10.90;99.90;;;;;;5090370;28;20177;-65
2023/04/24 03:55:31;;;;;;;0.00;0.00;;;10.90;99.90;;;;;;5090990;28;20190;-66
2023/04/24 03:57:56;;;;;;;0.00;0.00;;;10.80;99.90;;;;;;5090752;28;20214;-66
2023/04/24 04:00:22;;;;;;;0.00;0.00;;;10.70;99.90;;;;;;5091048;28;20177;-67
2023/04/24 04:02:47;;;;;;;0.00;0.00;;;10.50;99.90;;;;;;5091009;28;20686;-65
2023/04/24 04:05:13;;;;;;;0.00;0.00;;;10.30;99.90;;;;;;5090040;28;20176;-61
2023/04/24 04:07:38;;;;;;;0.00;0.00;;;10.20;99.90;;;;;;5090950;28;20628;-63
2023/04/24 04:10:06;;;;;;;0.00;0.00;;;10.00;99.90;;;;;;5071953;28;20176;-63
2023/04/24 04:12:32;;;;;;;0.00;0.00;;;9.90;99.90;;;;;;5090690;28;20208;-63
2023/04/24 04:14:57;;;;;;;0.00;0.00;;;9.80;99.90;;;;;;5090696;28;20268;-63
2023/04/24 04:17:23;;;;;;;0.00;0.00;;;9.80;99.90;;;;;;5092084;28;20218;-62
2023/04/24 04:19:48;;;;;;;0.00;0.00;;;9.80;99.90;;;;;;5095078;28;20252;-61
2023/04/24 04:22:14;;;;;;;0.00;0.00;;;10.10;99.90;;;;;;5095030;28;20234;-61
2023/04/24 04:24:40;;;;;;;0.00;0.00;;;10.10;99.90;;;;;;5095165;28;20181;-62
2023/04/24 04:27:06;;;;;;;0.00;0.00;;;10.20;99.90;;;;;;5095227;28;20172;-61
2023/04/24 04:29:32;;;;;;;0.00;0.00;;;10.20;99.90;;;;;;5095062;28;20281;-61
2023/04/24 04:31:58;;;;;;;0.00;0.00;;;10.20;99.90;;;;;;5095222;28;20176;-61
2023/04/24 04:34:24;;;;;;;0.00;0.00;;;10.20;99.90;;;;;;5094979;28;20534;-61
2023/04/24 04:36:50;;;;;;;0.00;0.00;;;10.10;99.90;;;;;;5094657;28;20218;-61
2023/04/24 04:39:16;;;;;;;0.00;0.00;;;10.10;99.90;;;;;;5094818;28;20228;-61
2023/04/24 04:41:42;;;;;;;0.00;0.00;;;10.10;99.90;;;;;;5094850;28;20195;-60
2023/04/24 04:44:08;;;;;;;0.00;0.00;;;10.00;99.90;;;;;;5094865;28;20654;-60
2023/04/24 04:46:36;;;;;;;0.00;0.00;;;9.90;99.90;;;;;;5094390;28;20195;-60
2023/04/24 04:49:02;;;;;;;0.00;0.00;;;9.80;99.90;;;;;;5094399;28;20184;-61
2023/04/24 04:51:27;;;;;;;0.00;0.00;;;9.80;99.90;;;;;;5094312;28;20165;-60
2023/04/24 04:53:53;;;;;;;0.00;0.00;;;9.80;99.90;;;;;;5094152;28;20176;-60
2023/04/24 04:56:19;;;;;;;0.00;0.00;;;9.70;99.90;;;;;;5094022;28;22127;-60
2023/04/24 04:58:44;;;;;;;0.00;0.00;;;9.70;99.90;;;;;;5094325;28;20191;-60
2023/04/24 05:01:10;;;;;;;0.00;0.00;;;9.70;99.90;;;;;;5092526;28;20563;-60
2023/04/24 05:03:36;;;;;;;0.00;0.00;;;9.60;99.90;;;;;;5090334;28;20191;-60
2023/04/24 05:06:02;;;;;;;0.00;0.00;;;9.60;99.90;;;;;;5094126;28;20230;-60
2023/04/24 05:08:27;;;;;;;0.00;0.00;;;9.60;99.90;;;;;;5094061;28;20251;-60
2023/04/24 05:10:53;;;;;;;0.00;0.00;;;9.60;99.90;;;;;;5094067;28;20172;-60
2023/04/24 05:13:19;;;;;;;0.00;0.00;;;9.50;99.90;;;;;;5093810;28;20534;-60
2023/04/24 05:15:45;;;;;;;0.00;0.00;;;9.50;99.90;;;;;;5093756;28;20172;-61
2023/04/24 05:18:10;;;;;;;0.10;0.10;;;9.60;99.90;;;;;;5093627;28;20319;-60
2023/04/24 05:20:36;;;;;;;0.00;0.00;;;9.60;99.90;;;;;;5093815;28;20631;-60
2023/04/24 05:23:01;;;;;;;0.00;0.00;;;9.70;99.90;;;;;;5093828;28;20199;-60
2023/04/24 05:25:27;;;;;;;0.00;0.00;;;9.70;99.90;;;;;;5093772;28;20180;-60
2023/04/24 05:27:53;;;;;;;0.00;0.00;;;9.80;99.90;;;;;;5093127;28;20291;-60
2023/04/24 05:30:19;;;;;;;0.00;0.00;;;9.90;99.90;;;;;;5093548;28;20172;-61
2023/04/24 05:32:45;;;;;;;0.20;0.20;;;10.10;99.90;;;;;;5093574;28;20183;-60
2023/04/24 05:35:10;;;;;;;0.10;0.10;;;10.30;99.90;;;;;;5093289;28;20180;-61
2023/04/24 05:37:36;;;;;;;0.00;0.00;;;10.60;99.90;;;;;;5093566;28;20258;-61
2023/04/24 05:40:04;;;;;;;0.10;0.10;;;11.00;99.90;;;;;;5093368;28;20169;-60
2023/04/24 05:42:29;;;;;;;0.00;0.00;;;11.40;99.90;;;;;;5093470;28;20244;-61
2023/04/24 05:44:55;;;;;;;0.00;0.00;;;11.70;99.90;;;;;;5093411;28;20176;-61
2023/04/24 05:47:21;;;;;;;0.00;0.00;;;11.90;99.90;;;;;;5075189;28;20184;-61
2023/04/24 05:49:47;;;;;;;0.00;0.00;;;12.20;99.90;;;;;;5093212;28;20290;-61
2023/04/24 05:52:13;;;;;;;0.00;0.00;;;12.50;99.90;;;;;;5093060;28;20630;-61
2023/04/24 05:54:38;;;;;;;0.00;0.00;;;13.00;99.90;;;;;;5093504;28;20689;-61
2023/04/24 05:57:07;;;;;;;0.00;0.00;;;13.10;99.90;;;;;;5093104;28;20216;-61
2023/04/24 05:59:33;;;;;;;0.47;0.47;;;13.20;99.90;;;;;;5093137;28;20249;-62
2023/04/24 06:01:59;;;;;;;0.00;0.00;;;13.20;99.90;;;;;;5086919;28;20360;-61
2023/04/24 06:04:25;;;;;;;0.00;0.00;;;13.50;99.90;;;;;;5082078;28;20268;-61
2023/04/24 06:06:55;;;;;;;0.00;0.00;;;13.50;99.90;;;;;;5072882;28;20173;-61
2023/04/24 06:09:21;;;;;;;0.00;0.00;;;13.90;99.90;;;;;;5072739;28;20185;-62
2023/04/24 06:11:47;;;;;;;0.00;0.00;;;14.40;99.90;;;;;;5072802;28;20176;-61
2023/04/24 06:14:13;;;;;;;0.00;0.00;;;14.80;99.90;;;;;;5072249;28;20797;-61
2023/04/24 06:16:40;;;;;;;0.00;0.00;;;14.90;99.90;;;;;;5072614;28;20208;-61
2023/04/24 06:19:05;;;;;;;0.00;0.00;;;14.90;99.90;;;;;;5072414;28;20177;-61
2023/04/24 06:21:31;;;;;;;0.00;0.00;;;15.00;99.90;;;;;;5072246;28;20865;-61
2023/04/24 06:23:57;;;;;;;0.00;0.00;;;15.10;99.90;;;;;;5072507;28;20188;-61
2023/04/24 06:26:24;;;;;;;0.00;0.00;;;15.20;99.90;;;;;;5072240;28;20181;-61
2023/04/24 06:28:51;;;;;;;0.00;0.00;;;15.30;99.90;;;;;;5072249;28;20239;-61
2023/04/24 06:31:16;;;;;;;0.17;0.17;;;15.40;99.90;;;;;;5072174;28;20261;-61
2023/04/24 06:33:42;;;;;;;0.00;0.00;;;15.40;99.90;;;;;;5072422;28;20215;-62
2023/04/24 06:36:08;;;;;;;0.00;0.00;;;15.80;99.90;;;;;;5072206;28;20573;-61
2023/04/24 06:38:34;;;;;;;0.00;0.00;;;16.30;99.90;;;;;;5072344;28;20210;-61
2023/04/24 06:40:59;;;;;;;0.00;0.00;;;15.40;98.50;;;;;;5071554;28;20191;-61
2023/04/24 06:43:25;;;;;;;0.00;0.00;;;15.10;99.90;;;;;;5072158;28;20653;-62
2023/04/24 06:45:51;;;;;;;0.00;0.00;;;14.50;99.90;;;;;;5071962;28;20169;-61
2023/04/24 06:48:16;;;;;;;0.00;0.00;;;14.10;99.90;;;;;;5071959;28;20176;-61
2023/04/24 06:50:42;;;;;;;0.00;0.00;;;13.80;99.90;;;;;;5074433;28;20178;-61
2023/04/24 06:53:09;;;;;;;0.00;0.00;;;13.70;99.90;;;;;;5092205;28;20291;-61
2023/04/24 06:55:35;;;;;;;0.00;0.00;;;13.50;99.90;;;;;;5092228;28;20180;-61
2023/04/24 06:58:01;;;;;;;0.00;0.00;;;13.20;99.90;;;;;;5092082;28;20720;-61
2023/04/24 07:00:27;;;;;;;0.00;0.00;;;13.10;99.90;;;;;;5073592;28;20180;-61
2023/04/24 07:02:52;;;;;;;0.00;0.00;;;13.00;99.90;;;;;;5091730;28;20171;-61
2023/04/24 07:05:19;;;;;;;0.00;0.00;;;13.00;99.90;;;;;;5091004;28;20187;-61
2023/04/24 07:07:47;;;;;;;0.00;0.00;;;13.00;99.90;;;;;;5091968;28;20293;-60
2023/04/24 07:10:12;;;;;;;0.00;0.00;;;12.70;99.90;;;;;;5075124;28;20188;-61
2023/04/24 07:12:38;;;;;;;0.00;0.00;;;12.50;99.90;;;;;;5075667;28;20180;-60
2023/04/24 07:15:05;;;;;;;0.00;0.00;;;12.40;99.90;;;;;;5071550;28;20180;-60
2023/04/24 07:17:31;;;;;;;0.00;0.00;;;12.50;99.90;;;;;;5071220;28;20216;-61
2023/04/24 07:19:56;;;;;;;0.00;0.00;;;12.70;99.90;;;;;;5071515;28;20176;-60
2023/04/24 07:22:22;;;;;;;0.00;0.00;;;12.90;99.90;;;;;;5071482;28;20249;-60
2023/04/24 07:24:48;;;;;;;0.00;0.00;;;13.00;99.90;;;;;;5071804;28;20168;-61
2023/04/24 07:27:14;;;;;;;0.10;0.10;;;13.40;99.90;;;;;;5071512;28;20184;-61
2023/04/24 07:29:40;;;;;;;0.00;0.00;;;13.30;99.90;;;;;;5071861;28;20184;-61
2023/04/24 07:32:06;;;;;;;0.00;0.00;;;13.50;99.90;;;;;;5071541;28;20196;-60
2023/04/24 07:34:31;;;;;;;0.00;0.00;;;13.90;99.90;;;;;;5071326;28;20180;-62
2023/04/24 07:36:57;;;;;;;0.00;0.00;;;13.80;99.90;;;;;;5071654;28;20720;-60
2023/04/24 07:39:24;;;;;;;0.00;0.00;;;13.70;99.40;;;;;;5071279;28;20201;-60
2023/04/24 07:41:49;;;;;;;0.00;0.00;;;13.90;99.20;;;;;;5071567;28;20177;-60
2023/04/24 07:44:15;;;;;;;0.00;0.00;;;13.70;98.20;;;;;;5071399;28;20176;-60
2023/04/24 07:46:41;;;;;;;0.00;0.00;;;13.60;98.20;;;;;;5071730;28;20279;-59
2023/04/24 07:49:06;;;;;;;0.00;0.00;;;13.50;98.20;;;;;;5071218;28;20180;-59
2023/04/24 07:51:37;;;;;;;0.00;0.00;;;13.20;97.80;;;;;;5080695;28;20187;-60
2023/04/24 07:54:04;;;;;;;0.00;0.00;;;13.20;98.00;;;;;;5091619;28;20237;-60
2023/04/24 07:56:31;;;;;;;0.00;0.00;;;13.00;98.10;;;;;;5091369;28;20553;-60
2023/04/24 07:58:56;;;;;;;0.00;0.00;;;12.60;97.90;;;;;;5091623;28;20177;-60
2023/04/24 08:01:21;;;;;;;0.00;0.00;;;12.50;98.60;;;;;;5091343;28;20179;-61
2023/04/24 08:03:47;;;;;;;0.00;0.00;;;12.40;99.40;;;;;;5091465;28;20175;-60
2023/04/24 08:06:13;;;;;;;0.00;0.00;;;12.40;99.90;;;;;;5091261;28;20643;-60
2023/04/24 08:08:38;;;;;;;0.00;0.00;;;12.50;99.90;;;;;;5091510;28;20169;-60
2023/04/24 08:11:04;;;;;;;0.00;0.00;;;12.60;99.90;;;;;;5091362;28;20535;-60
2023/04/24 08:13:29;;;;;;;0.00;0.00;;;12.80;99.90;;;;;;5075852;28;20611;-60
2023/04/24 08:15:56;;;;;;;0.00;0.00;;;13.00;99.50;;;;;;5071206;28;20623;-60
2023/04/24 08:18:22;;;;;;;0.00;0.00;;;12.90;99.00;;;;;;5070865;28;20273;-61
2023/04/24 08:20:47;;;;;;;0.00;0.00;;;12.70;99.40;;;;;;5071111;28;20628;-60
2023/04/24 08:23:13;;;;;;;0.00;0.00;;;12.50;99.60;;;;;;5070997;28;20177;-60
2023/04/24 08:25:39;;;;;;;0.00;0.00;;;12.20;99.90;;;;;;5071199;28;20568;-60
2023/04/24 08:28:08;;;;;;;0.00;0.00;;;11.90;99.90;;;;;;5070935;28;20228;-60
2023/04/24 08:30:33;;;;;;;0.00;0.00;;;11.80;99.90;;;;;;5071114;28;20222;-60
2023/04/24 08:32:59;;;;;;;0.00;0.00;;;11.90;99.90;;;;;;5071107;28;20647;-60
2023/04/24 08:35:25;;;;;;;0.00;0.00;;;12.20;99.90;;;;;;5071107;28;20165;-60
2023/04/24 08:37:51;;;;;;;0.00;0.00;;;12.30;99.90;;;;;;5070945;28;20239;-60
2023/04/24 08:40:17;;;;;;;0.00;0.00;;;12.40;99.90;;;;;;5070961;28;20247;-60
2023/04/24 08:42:44;;;;;;;0.00;0.00;;;12.70;99.90;;;;;;5071155;28;20181;-60
2023/04/24 08:45:13;;;;;;;0.00;0.00;;;12.50;99.50;;;;;;5070669;28;20177;-60
2023/04/24 08:47:40;;;;;;;0.00;0.00;;;12.60;99.90;;;;;;5070944;28;20187;-60
2023/04/24 08:50:07;;;;;;;0.00;0.00;;;12.90;99.30;;;;;;5070887;28;20177;-60
2023/04/24 08:52:34;;;;;;;0.00;0.00;;;13.30;99.30;;;;;;5088835;28;20718;-60
2023/04/24 08:55:01;;;;;;;0.00;0.00;;;13.80;99.10;;;;;;5091024;28;20173;-60
2023/04/24 08:57:27;;;;;;;0.00;0.00;;;14.10;98.60;;;;;;5090966;28;20865;-60
2023/04/24 08:59:54;;;;;;;0.00;0.00;;;14.30;97.90;;;;;;5090898;28;20632;-60
2023/04/24 09:02:20;;;;;;;0.00;0.00;;;14.50;97.60;;;;;;5090862;28;20199;-61
2023/04/24 09:04:47;;;;;;;0.00;0.00;;;14.70;96.60;;;;;;5094174;28;20165;-60
2023/04/24 09:07:16;;;;;;;0.00;0.00;;;14.50;96.20;;;;;;5094418;28;20176;-60
2023/04/24 09:09:42;;;;;;;0.00;0.00;;;14.00;95.80;;;;;;5094339;28;20655;-60
2023/04/24 09:12:09;;;;;;;0.00;0.00;;;13.40;95.00;;;;;;5090471;28;20263;-60
2023/04/24 09:14:38;;;;;;;0.00;0.00;;;13.20;96.40;;;;;;5088598;28;20230;-60
2023/04/24 09:17:03;;;;;;;0.10;0.10;;;13.30;96.40;;;;;;5091939;28;20239;-61
2023/04/24 09:19:29;;;;;;;0.00;0.00;;;13.80;97.70;;;;;;5073784;28;20204;-60
2023/04/24 09:21:54;;;;;;;0.00;0.00;;;14.20;97.20;;;;;;5079446;28;20188;-61
2023/04/24 09:24:24;;;;;;;0.00;0.00;;;14.70;96.50;;;;;;5074032;28;20264;-61
2023/04/24 09:27:01;;;;;;;0.00;0.00;;;15.00;96.00;;;;;;5094128;28;20198;-60
2023/04/24 09:29:26;;;;;;;0.00;0.00;;;15.20;94.30;;;;;;5094015;28;20310;-60
2023/04/24 09:31:52;;;;;;;0.00;0.00;;;15.40;93.40;;;;;;5094130;28;20741;-60
2023/04/24 09:34:27;;;;;;;0.00;0.00;;;15.60;93.10;;;;;;5094055;28;20207;-60
2023/04/24 09:36:54;;;;;;;0.00;0.00;;;15.60;92.50;;;;;;5093927;28;20215;-61
2023/04/24 09:39:20;;;;;;;0.00;0.00;;;15.60;93.00;;;;;;5094023;28;20643;-61
2023/04/24 09:41:59;;;;;;;0.00;0.00;;;15.90;92.80;;;;;;5094057;28;20184;-61
2023/04/24 09:44:26;;;;;;;0.10;0.10;;;16.10;93.10;;;;;;5093876;28;20186;-61
2023/04/24 09:46:54;;;;;;;0.00;0.00;;;15.90;91.40;;;;;;5093814;28;20635;-61
2023/04/24 09:49:30;;;;;;;0.05;0.05;;;15.70;91.80;;;;;;5093670;28;20213;-61
2023/04/24 09:52:09;;;;;;;0.00;0.00;;;15.00;91.60;;;;;;5093733;28;20175;-60
2023/04/24 09:54:36;;;;;;;0.00;0.00;;;14.40;92.60;;;;;;5093752;28;20164;-60
2023/04/24 09:57:02;;;;;;;0.00;0.00;;;13.70;93.70;;;;;;5093659;28;20349;-61
2023/04/24 09:59:28;;;;;;;0.00;0.00;;;13.20;94.70;;;;;;5093614;28;20695;-61
2023/04/24 10:01:54;;;;;;;0.00;0.00;;;12.90;95.90;;;;;;5093653;28;20218;-61
2023/04/24 10:04:23;;;;;;;0.00;0.00;;;12.60;96.40;;;;;;5093510;28;20180;-61
2023/04/24 10:06:49;;;;;;;0.00;0.00;;;12.50;97.00;;;;;;5093320;28;20187;-61
2023/04/24 10:09:16;;;;;;;0.00;0.00;;;12.50;97.30;;;;;;5093451;28;20582;-61
2023/04/24 10:11:45;;;;;;;0.00;0.00;;;12.50;96.90;;;;;;5093530;28;20217;-61
2023/04/24 10:14:18;;;;;;;0.00;0.00;;;12.40;96.10;;;;;;5092783;28;20184;-61
2023/04/24 10:16:46;;;;;;;0.03;0.03;;;12.40;96.10;;;;;;5074809;28;20225;-61
2023/04/24 10:19:13;;;;;;;0.00;0.00;;;12.50;96.60;;;;;;5093085;28;20650;-61
2023/04/24 10:21:42;;;;;;;0.00;0.00;;;12.50;96.40;;;;;;5093181;28;20179;-61
2023/04/24 10:24:08;;;;;;;0.00;0.00;;;12.40;95.50;;;;;;5093189;28;20702;-61
2023/04/24 10:26:35;;;;;;;0.10;0.10;;;12.60;96.10;;;;;;5072721;28;20212;-61
2023/04/24 10:29:01;;;;;;;0.00;0.00;;;13.20;96.50;;;;;;5072678;28;20221;-61
2023/04/24 10:31:30;;;;;;;0.00;0.00;;;13.80;96.00;;;;;;5072714;28;20177;-61
2023/04/24 10:33:58;;;;;;;0.00;0.00;;;14.10;93.60;;;;;;5072785;28;20177;-61
2023/04/24 10:36:26;;;;;;;0.00;0.00;;;14.50;94.20;;;;;;5072552;28;20192;-61
2023/04/24 10:38:54;;;;;;;0.00;0.00;;;15.10;92.40;;;;;;5072557;28;20169;-61
2023/04/24 10:41:22;;;;;;;0.00;0.00;;;15.30;90.80;;;;;;5072577;28;20188;-62
2023/04/24 10:44:03;;;;;;;0.00;0.00;;;15.50;91.20;;;;;;5072599;28;20594;-61
2023/04/24 10:46:30;;;;;;;0.00;0.00;;;15.30;90.70;;;;;;5072345;28;20169;-61
2023/04/24 10:48:58;;;;;;;0.00;0.00;;;14.80;90.20;;;;;;5072469;28;20184;-61
2023/04/24 10:51:24;;;;;;;0.00;0.00;;;14.40;90.50;;;;;;5080647;28;20168;-61
2023/04/24 10:53:51;;;;;;;0.00;0.00;;;14.20;91.50;;;;;;5092403;28;20543;-61
2023/04/24 10:56:17;;;;;;;0.00;0.00;;;14.00;91.90;;;;;;5092287;28;20176;-61
2023/04/24 10:58:52;;;;;;;0.00;0.00;;;13.90;92.60;;;;;;5092519;28;20651;-61
2023/04/24 11:01:33;;;;;;;0.00;0.00;;;13.70;92.10;;;;;;5092335;28;20186;-61
2023/04/24 11:04:02;;;;;;;0.00;0.00;;;13.30;91.90;;;;;;5092454;28;20188;-61
2023/04/24 11:06:35;;;;;;;0.00;0.00;;;13.10;92.80;;;;;;5092415;28;20225;-61
2023/04/24 11:09:09;;;;;;;0.00;0.00;;;12.80;93.50;;;;;;5092417;28;20172;-61
2023/04/24 11:11:37;;;;;;;0.00;0.00;;;12.50;94.80;;;;;;5092351;28;20176;-60
2023/04/24 11:14:06;;;;;;;0.00;0.00;;;12.40;95.30;;;;;;5092296;28;20582;-61
2023/04/24 11:16:33;;;;;;;0.00;0.00;;;12.40;95.70;;;;;;5091967;28;20168;-61
2023/04/24 11:19:18;;;;;;;0.00;0.00;;;12.40;96.10;;;;;;5092224;28;20172;-61
2023/04/24 11:21:55;;;;;;;0.00;0.00;;;12.40;96.40;;;;;;5092069;28;20581;-61
2023/04/24 11:24:31;;;;;;;0.00;0.00;;;12.40;96.10;;;;;;5090395;28;20168;-61
2023/04/24 11:27:05;;;;;;;0.00;0.00;;;12.40;96.50;;;;;;5071418;28;20271;-61
2023/04/24 11:29:40;;;;;;;0.00;0.00;;;12.60;96.80;;;;;;5071393;28;20279;-61
2023/04/24 11:32:19;;;;;;;0.00;0.00;;;13.10;96.90;;;;;;5071663;28;20176;-61
2023/04/24 11:34:47;;;;;;;0.03;0.03;;;13.80;96.30;;;;;;5071715;28;20185;-61
2023/04/24 11:37:13;;;;;;;0.00;0.00;;;14.00;95.10;;;;;;5071477;28;20566;-61
2023/04/24 11:39:38;;;;;;;0.00;0.00;;;13.80;94.10;;;;;;5071588;28;20169;-62
2023/04/24 11:42:06;;;;;;;0.00;0.00;;;13.60;94.60;;;;;;5071488;28;20707;-62
2023/04/24 11:44:33;;;;;;;0.00;0.00;;;13.50;94.90;;;;;;5071404;28;20187;-61
2023/04/24 11:46:59;;;;;;;0.00;0.00;;;13.40;96.30;;;;;;5071284;28;20176;-61
2023/04/24 11:49:25;;;;;;;0.00;0.00;;;13.40;96.10;;;;;;5071564;28;20188;-62
2023/04/24 11:51:54;;;;;;;0.00;0.00;;;13.60;96.80;;;;;;5083366;28;20325;-62
2023/04/24 11:54:20;;;;;;;0.00;0.00;;;13.80;97.00;;;;;;5091981;28;20226;-62
2023/04/24 11:56:47;;;;;;;0.00;0.00;;;13.80;95.90;;;;;;5091581;28;20554;-62
2023/04/24 11:59:12;;;;;;;0.00;0.00;;;13.90;95.90;;;;;;5091450;28;20180;-62
2023/04/24 12:01:48;;;;;;;0.00;0.00;;;13.80;96.10;;;;;;5091389;28;20165;-62
2023/04/24 12:04:15;;;;;;;0.00;0.00;;;13.60;96.00;;;;;;5071388;28;20175;-62
2023/04/24 12:06:58;;;;;;;0.00;0.00;;;13.50;97.10;;;;;;5071396;28;20528;-62
2023/04/24 12:09:23;;;;;;;0.00;0.00;;;13.20;96.40;;;;;;5071319;28;20176;-62
2023/04/24 12:11:56;;;;;;;0.00;0.00;;;13.30;97.70;;;;;;5071189;28;20222;-62
2023/04/24 12:14:23;;;;;;;0.00;0.00;;;13.50;97.60;;;;;;5076445;28;20180;-62
2023/04/24 12:16:50;;;;;;;0.00;0.00;;;13.80;96.80;;;;;;5090605;28;20410;-61
2023/04/24 12:19:22;;;;;;;0.00;0.00;;;13.90;96.20;;;;;;5091378;28;20179;-61
2023/04/24 12:22:06;;;;;;;0.00;0.00;;;13.70;95.50;;;;;;5090844;28;20265;-60
2023/04/24 12:24:31;;;;;;;0.00;0.00;;;13.80;96.20;;;;;;5088146;28;20193;-60
2023/04/24 12:26:58;;;;;;;0.00;0.00;;;13.60;96.10;;;;;;5077767;28;20274;-60
2023/04/24 12:29:24;;;;;;;0.00;0.00;;;13.60;97.10;;;;;;5090444;28;20219;-59
2023/04/24 12:31:51;;;;;;;0.00;0.00;;;13.80;97.20;;;;;;5090275;28;20195;-59
2023/04/24 12:34:25;;;;;;;0.00;0.00;;;13.80;96.20;;;;;;5072680;28;20176;-59
2023/04/24 12:36:50;;;;;;;0.10;0.10;;;13.70;96.30;;;;;;5090875;28;20562;-59
2023/04/24 12:39:19;;;;;;;0.00;0.00;;;13.70;97.10;;;;;;5093338;28;20198;-59
2023/04/24 12:41:57;;;;;;;0.00;0.00;;;14.10;97.20;;;;;;5094940;28;20179;-60
2023/04/24 12:44:34;;;;;;;0.00;0.00;;;14.70;96.50;;;;;;5095002;28;20255;-60
2023/04/24 12:47:01;;;;;;;0.00;0.00;;;14.90;95.10;;;;;;5094859;28;20206;-60